sensor_id;sensor_type;location;lat;lon;timestamp;P1;durP1;ratioP1;P2;durP2;ratioP2
74401;SDS011;62837;51.082;13.744;2023-01-10T00:00:03;1.80;;;1.10;;
74401;SDS011;62837;51.082;13.744;2023-01-10T00:02:36;2.00;;;0.80;;
74401;SDS011;62837;51.082;13.744;2023-01-10T00:05:08;2.70;;;1.20;;
74401;SDS011;62837;51.082;13.744;2023-01-10T00:07:38;1.00;;;0.30;;
74401;SDS011;62837;51.082;13.744;2023-01-10T00:10:10;3.20;;;0.80;;
74401;SDS011;62837;51.082;13.744;2023-01-10T00:12:41;2.00;;;0.70;;
74401;SDS011;62837;51.082;13.744;2023-01-10T00:15:31;2.60;;;0.40;;
74401;SDS011;62837;51.082;13.744;2023-01-10T00:18:03;3.10;;;1.30;;
74401;SDS011;62837;51.082;13.744;2023-01-10T00:20:34;1.30;;;0.70;;
74401;SDS011;62837;51.082;13.744;2023-01-10T00:23:05;1.10;;;0.60;;
74401;SDS011;62837;51.082;13.744;2023-01-10T00:25:36;1.80;;;0.80;;
74401;SDS011;62837;51.082;13.744;2023-01-10T00:28:07;1.90;;;0.90;;
74401;SDS011;62837;51.082;13.744;2023-01-10T00:30:50;2.80;;;0.70;;
74401;SDS011;62837;51.082;13.744;2023-01-10T00:33:28;2.00;;;1.00;;
74401;SDS011;62837;51.082;13.744;2023-01-10T00:35:59;2.40;;;0.60;;
74401;SDS011;62837;51.082;13.744;2023-01-10T00:38:32;1.80;;;0.60;;
74401;SDS011;62837;51.082;13.744;2023-01-10T00:41:04;1.90;;;1.10;;
74401;SDS011;62837;51.082;13.744;2023-01-10T00:43:56;3.20;;;1.20;;
74401;SDS011;62837;51.082;13.744;2023-01-10T00:46:26;3.30;;;1.00;;
74401;SDS011;62837;51.082;13.744;2023-01-10T00:48:57;1.20;;;0.60;;
74401;SDS011;62837;51.082;13.744;2023-01-10T00:51:35;3.70;;;1.00;;
74401;SDS011;62837;51.082;13.744;2023-01-10T00:54:07;1.60;;;0.90;;
74401;SDS011;62837;51.082;13.744;2023-01-10T00:59:08;3.20;;;1.30;;
74401;SDS011;62837;51.082;13.744;2023-01-10T01:01:38;3.00;;;1.00;;
74401;SDS011;62837;51.082;13.744;2023-01-10T01:04:09;2.70;;;1.20;;
74401;SDS011;62837;51.082;13.744;2023-01-10T01:06:40;1.30;;;0.90;;
74401;SDS011;62837;51.082;13.744;2023-01-10T01:09:14;2.30;;;1.20;;
74401;SDS011;62837;51.082;13.744;2023-01-10T01:11:45;1.80;;;0.90;;
74401;SDS011;62837;51.082;13.744;2023-01-10T01:14:16;3.90;;;1.60;;
74401;SDS011;62837;51.082;13.744;2023-01-10T01:16:46;2.90;;;0.90;;
74401;SDS011;62837;51.082;13.744;2023-01-10T01:19:17;1.90;;;0.80;;
74401;SDS011;62837;51.082;13.744;2023-01-10T01:21:48;2.60;;;1.10;;
74401;SDS011;62837;51.082;13.744;2023-01-10T01:24:19;2.20;;;0.80;;
74401;SDS011;62837;51.082;13.744;2023-01-10T01:26:51;5.20;;;1.60;;
74401;SDS011;62837;51.082;13.744;2023-01-10T01:29:22;3.50;;;1.20;;
74401;SDS011;62837;51.082;13.744;2023-01-10T01:32:05;2.20;;;1.40;;
74401;SDS011;62837;51.082;13.744;2023-01-10T01:34:36;2.20;;;1.50;;
74401;SDS011;62837;51.082;13.744;2023-01-10T01:37:07;2.50;;;0.90;;
74401;SDS011;62837;51.082;13.744;2023-01-10T01:39:38;3.80;;;1.20;;
74401;SDS011;62837;51.082;13.744;2023-01-10T01:42:12;2.70;;;0.90;;
74401;SDS011;62837;51.082;13.744;2023-01-10T01:47:58;1.90;;;0.90;;
74401;SDS011;62837;51.082;13.744;2023-01-10T01:50:33;2.10;;;0.80;;
74401;SDS011;62837;51.082;13.744;2023-01-10T01:53:08;2.50;;;1.00;;
74401;SDS011;62837;51.082;13.744;2023-01-10T01:55:43;8.40;;;1.80;;
74401;SDS011;62837;51.082;13.744;2023-01-10T01:58:16;3.70;;;1.10;;
74401;SDS011;62837;51.082;13.744;2023-01-10T02:00:52;1.90;;;1.10;;
74401;SDS011;62837;51.082;13.744;2023-01-10T02:03:25;2.10;;;1.00;;
74401;SDS011;62837;51.082;13.744;2023-01-10T02:05:57;2.30;;;1.00;;
74401;SDS011;62837;51.082;13.744;2023-01-10T02:08:28;2.60;;;1.10;;
74401;SDS011;62837;51.082;13.744;2023-01-10T02:11:00;3.30;;;1.10;;
74401;SDS011;62837;51.082;13.744;2023-01-10T02:13:35;4.40;;;1.50;;
74401;SDS011;62837;51.082;13.744;2023-01-10T02:16:10;2.20;;;1.70;;
74401;SDS011;62837;51.082;13.744;2023-01-10T02:18:41;2.80;;;1.30;;
74401;SDS011;62837;51.082;13.744;2023-01-10T02:21:18;2.20;;;1.30;;
74401;SDS011;62837;51.082;13.744;2023-01-10T02:24:18;2.60;;;0.90;;
74401;SDS011;62837;51.082;13.744;2023-01-10T02:27:11;3.20;;;1.10;;
74401;SDS011;62837;51.082;13.744;2023-01-10T02:30:06;2.60;;;1.40;;
74401;SDS011;62837;51.082;13.744;2023-01-10T02:32:57;3.60;;;1.60;;
74401;SDS011;62837;51.082;13.744;2023-01-10T02:35:36;1.70;;;1.00;;
74401;SDS011;62837;51.082;13.744;2023-01-10T02:38:21;4.20;;;1.00;;
74401;SDS011;62837;51.082;13.744;2023-01-10T02:41:03;2.60;;;1.30;;
74401;SDS011;62837;51.082;13.744;2023-01-10T02:43:44;5.70;;;1.90;;
74401;SDS011;62837;51.082;13.744;2023-01-10T02:46:20;2.30;;;1.20;;
74401;SDS011;62837;51.082;13.744;2023-01-10T02:48:54;1.90;;;1.30;;
74401;SDS011;62837;51.082;13.744;2023-01-10T02:51:26;3.50;;;1.70;;
74401;SDS011;62837;51.082;13.744;2023-01-10T02:54:00;2.20;;;0.90;;
74401;SDS011;62837;51.082;13.744;2023-01-10T02:56:42;2.70;;;1.40;;
74401;SDS011;62837;51.082;13.744;2023-01-10T03:02:49;3.00;;;1.10;;
74401;SDS011;62837;51.082;13.744;2023-01-10T03:05:34;4.50;;;2.20;;
74401;SDS011;62837;51.082;13.744;2023-01-10T03:08:21;3.30;;;1.40;;
74401;SDS011;62837;51.082;13.744;2023-01-10T03:10:58;2.10;;;1.10;;
74401;SDS011;62837;51.082;13.744;2023-01-10T03:13:33;4.00;;;1.40;;
74401;SDS011;62837;51.082;13.744;2023-01-10T03:16:08;4.60;;;1.60;;
74401;SDS011;62837;51.082;13.744;2023-01-10T03:18:42;4.00;;;1.90;;
74401;SDS011;62837;51.082;13.744;2023-01-10T03:21:16;2.70;;;1.50;;
74401;SDS011;62837;51.082;13.744;2023-01-10T03:23:51;4.70;;;2.10;;
74401;SDS011;62837;51.082;13.744;2023-01-10T03:26:26;6.30;;;2.00;;
74401;SDS011;62837;51.082;13.744;2023-01-10T03:29:04;3.80;;;1.50;;
74401;SDS011;62837;51.082;13.744;2023-01-10T03:31:38;4.60;;;1.80;;
74401;SDS011;62837;51.082;13.744;2023-01-10T03:34:13;4.40;;;2.00;;
74401;SDS011;62837;51.082;13.744;2023-01-10T03:36:44;3.30;;;1.90;;
74401;SDS011;62837;51.082;13.744;2023-01-10T03:39:22;3.00;;;1.50;;
74401;SDS011;62837;51.082;13.744;2023-01-10T03:42:04;2.30;;;1.00;;
74401;SDS011;62837;51.082;13.744;2023-01-10T03:44:41;3.40;;;1.60;;
74401;SDS011;62837;51.082;13.744;2023-01-10T03:47:22;4.70;;;1.30;;
74401;SDS011;62837;51.082;13.744;2023-01-10T03:49:59;3.30;;;1.50;;
74401;SDS011;62837;51.082;13.744;2023-01-10T03:52:34;3.90;;;1.50;;
74401;SDS011;62837;51.082;13.744;2023-01-10T03:55:08;5.00;;;1.60;;
74401;SDS011;62837;51.082;13.744;2023-01-10T03:57:44;2.80;;;1.60;;
74401;SDS011;62837;51.082;13.744;2023-01-10T04:00:16;3.80;;;1.50;;
74401;SDS011;62837;51.082;13.744;2023-01-10T04:02:48;2.30;;;1.40;;
74401;SDS011;62837;51.082;13.744;2023-01-10T04:05:19;4.30;;;1.90;;
74401;SDS011;62837;51.082;13.744;2023-01-10T04:07:50;3.90;;;1.50;;
74401;SDS011;62837;51.082;13.744;2023-01-10T04:10:20;3.20;;;1.50;;
74401;SDS011;62837;51.082;13.744;2023-01-10T04:12:53;3.30;;;1.70;;
74401;SDS011;62837;51.082;13.744;2023-01-10T04:15:26;4.70;;;2.40;;
74401;SDS011;62837;51.082;13.744;2023-01-10T04:17:57;3.80;;;1.60;;
74401;SDS011;62837;51.082;13.744;2023-01-10T04:20:28;3.40;;;2.10;;
74401;SDS011;62837;51.082;13.744;2023-01-10T04:22:59;3.20;;;1.20;;
74401;SDS011;62837;51.082;13.744;2023-01-10T04:25:30;6.90;;;2.00;;
74401;SDS011;62837;51.082;13.744;2023-01-10T04:28:00;3.10;;;1.60;;
74401;SDS011;62837;51.082;13.744;2023-01-10T04:30:31;1.90;;;1.10;;
74401;SDS011;62837;51.082;13.744;2023-01-10T04:33:02;4.80;;;1.60;;
74401;SDS011;62837;51.082;13.744;2023-01-10T04:35:34;5.30;;;2.20;;
74401;SDS011;62837;51.082;13.744;2023-01-10T04:38:04;7.10;;;2.20;;
74401;SDS011;62837;51.082;13.744;2023-01-10T04:40:35;4.70;;;1.90;;
74401;SDS011;62837;51.082;13.744;2023-01-10T04:43:06;3.10;;;1.40;;
74401;SDS011;62837;51.082;13.744;2023-01-10T04:45:37;4.30;;;1.70;;
74401;SDS011;62837;51.082;13.744;2023-01-10T04:48:08;2.90;;;1.40;;
74401;SDS011;62837;51.082;13.744;2023-01-10T04:50:38;4.70;;;1.70;;
74401;SDS011;62837;51.082;13.744;2023-01-10T04:53:09;2.70;;;1.70;;
74401;SDS011;62837;51.082;13.744;2023-01-10T04:55:40;6.30;;;2.70;;
74401;SDS011;62837;51.082;13.744;2023-01-10T04:58:10;5.40;;;2.30;;
74401;SDS011;62837;51.082;13.744;2023-01-10T05:00:41;5.00;;;2.10;;
74401;SDS011;62837;51.082;13.744;2023-01-10T05:03:12;5.90;;;2.90;;
74401;SDS011;62837;51.082;13.744;2023-01-10T05:05:47;3.90;;;2.00;;
74401;SDS011;62837;51.082;13.744;2023-01-10T05:08:17;4.10;;;1.30;;
74401;SDS011;62837;51.082;13.744;2023-01-10T05:10:48;2.60;;;1.10;;
74401;SDS011;62837;51.082;13.744;2023-01-10T05:13:19;4.30;;;1.80;;
74401;SDS011;62837;51.082;13.744;2023-01-10T05:15:49;5.70;;;2.50;;
74401;SDS011;62837;51.082;13.744;2023-01-10T05:18:23;4.00;;;1.80;;
74401;SDS011;62837;51.082;13.744;2023-01-10T05:20:57;5.80;;;2.90;;
74401;SDS011;62837;51.082;13.744;2023-01-10T05:23:29;4.20;;;1.80;;
74401;SDS011;62837;51.082;13.744;2023-01-10T05:26:04;4.80;;;2.20;;
74401;SDS011;62837;51.082;13.744;2023-01-10T05:28:40;5.20;;;2.00;;
74401;SDS011;62837;51.082;13.744;2023-01-10T05:31:12;3.20;;;1.60;;
74401;SDS011;62837;51.082;13.744;2023-01-10T05:33:45;5.50;;;2.20;;
74401;SDS011;62837;51.082;13.744;2023-01-10T05:36:17;3.90;;;1.90;;
74401;SDS011;62837;51.082;13.744;2023-01-10T05:38:48;8.10;;;2.50;;
74401;SDS011;62837;51.082;13.744;2023-01-10T05:41:19;6.50;;;2.50;;
74401;SDS011;62837;51.082;13.744;2023-01-10T05:43:50;4.80;;;2.20;;
74401;SDS011;62837;51.082;13.744;2023-01-10T05:46:22;3.10;;;1.80;;
74401;SDS011;62837;51.082;13.744;2023-01-10T05:48:52;3.40;;;2.10;;
74401;SDS011;62837;51.082;13.744;2023-01-10T05:51:23;2.80;;;1.10;;
74401;SDS011;62837;51.082;13.744;2023-01-10T05:53:54;6.30;;;2.60;;
74401;SDS011;62837;51.082;13.744;2023-01-10T05:56:26;5.10;;;2.70;;
74401;SDS011;62837;51.082;13.744;2023-01-10T05:58:56;4.80;;;2.30;;
74401;SDS011;62837;51.082;13.744;2023-01-10T06:01:47;4.90;;;3.00;;
74401;SDS011;62837;51.082;13.744;2023-01-10T06:04:18;5.60;;;2.60;;
74401;SDS011;62837;51.082;13.744;2023-01-10T06:06:49;5.00;;;2.40;;
74401;SDS011;62837;51.082;13.744;2023-01-10T06:09:19;5.30;;;2.50;;
74401;SDS011;62837;51.082;13.744;2023-01-10T06:11:50;4.40;;;2.30;;
74401;SDS011;62837;51.082;13.744;2023-01-10T06:14:21;4.10;;;2.40;;
74401;SDS011;62837;51.082;13.744;2023-01-10T06:16:51;4.20;;;1.40;;
74401;SDS011;62837;51.082;13.744;2023-01-10T06:19:22;4.10;;;1.90;;
74401;SDS011;62837;51.082;13.744;2023-01-10T06:21:53;7.30;;;2.40;;
74401;SDS011;62837;51.082;13.744;2023-01-10T06:24:23;6.60;;;3.50;;
74401;SDS011;62837;51.082;13.744;2023-01-10T06:26:54;9.10;;;4.00;;
74401;SDS011;62837;51.082;13.744;2023-01-10T06:29:25;7.00;;;3.30;;
74401;SDS011;62837;51.082;13.744;2023-01-10T06:31:56;4.70;;;2.10;;
74401;SDS011;62837;51.082;13.744;2023-01-10T06:34:27;4.60;;;2.50;;
74401;SDS011;62837;51.082;13.744;2023-01-10T06:36:57;5.00;;;2.60;;
74401;SDS011;62837;51.082;13.744;2023-01-10T06:39:28;6.00;;;3.20;;
74401;SDS011;62837;51.082;13.744;2023-01-10T06:41:59;5.20;;;2.30;;
74401;SDS011;62837;51.082;13.744;2023-01-10T06:44:29;4.70;;;2.30;;
74401;SDS011;62837;51.082;13.744;2023-01-10T06:47:01;6.00;;;2.40;;
74401;SDS011;62837;51.082;13.744;2023-01-10T06:49:35;4.00;;;2.40;;
74401;SDS011;62837;51.082;13.744;2023-01-10T06:52:07;4.40;;;3.30;;
74401;SDS011;62837;51.082;13.744;2023-01-10T06:54:42;4.50;;;2.30;;
74401;SDS011;62837;51.082;13.744;2023-01-10T06:57:15;2.90;;;1.50;;
74401;SDS011;62837;51.082;13.744;2023-01-10T06:59:46;4.10;;;1.90;;
74401;SDS011;62837;51.082;13.744;2023-01-10T07:02:17;4.00;;;2.10;;
74401;SDS011;62837;51.082;13.744;2023-01-10T07:04:48;5.50;;;2.80;;
74401;SDS011;62837;51.082;13.744;2023-01-10T07:07:19;4.90;;;2.80;;
74401;SDS011;62837;51.082;13.744;2023-01-10T07:09:49;6.50;;;3.20;;
74401;SDS011;62837;51.082;13.744;2023-01-10T07:12:20;4.90;;;3.10;;
74401;SDS011;62837;51.082;13.744;2023-01-10T07:18:02;6.10;;;3.10;;
74401;SDS011;62837;51.082;13.744;2023-01-10T07:20:33;7.20;;;3.50;;
74401;SDS011;62837;51.082;13.744;2023-01-10T07:23:04;5.30;;;2.80;;
74401;SDS011;62837;51.082;13.744;2023-01-10T07:25:35;3.30;;;1.90;;
74401;SDS011;62837;51.082;13.744;2023-01-10T07:28:05;4.00;;;2.30;;
74401;SDS011;62837;51.082;13.744;2023-01-10T07:30:36;6.60;;;2.80;;
74401;SDS011;62837;51.082;13.744;2023-01-10T07:33:07;5.70;;;2.80;;
74401;SDS011;62837;51.082;13.744;2023-01-10T07:35:37;8.90;;;3.00;;
74401;SDS011;62837;51.082;13.744;2023-01-10T07:38:08;6.50;;;3.50;;
74401;SDS011;62837;51.082;13.744;2023-01-10T07:40:39;4.80;;;2.20;;
74401;SDS011;62837;51.082;13.744;2023-01-10T07:43:11;4.60;;;2.40;;
74401;SDS011;62837;51.082;13.744;2023-01-10T07:45:41;6.00;;;2.50;;
74401;SDS011;62837;51.082;13.744;2023-01-10T07:48:12;4.70;;;2.90;;
74401;SDS011;62837;51.082;13.744;2023-01-10T07:50:42;5.20;;;2.70;;
74401;SDS011;62837;51.082;13.744;2023-01-10T07:53:13;6.50;;;3.70;;
74401;SDS011;62837;51.082;13.744;2023-01-10T07:55:44;2.50;;;1.80;;
74401;SDS011;62837;51.082;13.744;2023-01-10T07:58:15;4.20;;;2.50;;
74401;SDS011;62837;51.082;13.744;2023-01-10T08:00:45;5.00;;;2.20;;
74401;SDS011;62837;51.082;13.744;2023-01-10T08:03:17;7.30;;;3.20;;
74401;SDS011;62837;51.082;13.744;2023-01-10T08:05:49;7.70;;;2.60;;
74401;SDS011;62837;51.082;13.744;2023-01-10T08:08:25;4.40;;;2.50;;
74401;SDS011;62837;51.082;13.744;2023-01-10T08:10:56;5.10;;;2.10;;
74401;SDS011;62837;51.082;13.744;2023-01-10T08:13:29;6.70;;;3.50;;
74401;SDS011;62837;51.082;13.744;2023-01-10T08:16:02;4.50;;;2.50;;
74401;SDS011;62837;51.082;13.744;2023-01-10T08:18:35;5.40;;;2.70;;
74401;SDS011;62837;51.082;13.744;2023-01-10T08:21:09;5.40;;;2.50;;
74401;SDS011;62837;51.082;13.744;2023-01-10T08:23:39;4.80;;;2.40;;
74401;SDS011;62837;51.082;13.744;2023-01-10T08:26:10;3.60;;;2.00;;
74401;SDS011;62837;51.082;13.744;2023-01-10T08:28:41;5.30;;;3.00;;
74401;SDS011;62837;51.082;13.744;2023-01-10T08:31:12;4.60;;;2.40;;
74401;SDS011;62837;51.082;13.744;2023-01-10T08:33:43;7.30;;;4.00;;
74401;SDS011;62837;51.082;13.744;2023-01-10T08:36:17;7.30;;;2.50;;
74401;SDS011;62837;51.082;13.744;2023-01-10T08:38:52;8.30;;;3.80;;
74401;SDS011;62837;51.082;13.744;2023-01-10T08:41:24;7.50;;;3.60;;
74401;SDS011;62837;51.082;13.744;2023-01-10T08:43:54;5.90;;;3.50;;
74401;SDS011;62837;51.082;13.744;2023-01-10T08:46:25;4.80;;;2.80;;
74401;SDS011;62837;51.082;13.744;2023-01-10T08:48:56;5.70;;;2.70;;
74401;SDS011;62837;51.082;13.744;2023-01-10T08:51:27;4.00;;;2.30;;
74401;SDS011;62837;51.082;13.744;2023-01-10T08:53:58;6.20;;;3.10;;
74401;SDS011;62837;51.082;13.744;2023-01-10T08:56:30;5.10;;;1.60;;
74401;SDS011;62837;51.082;13.744;2023-01-10T08:59:02;4.50;;;2.30;;
74401;SDS011;62837;51.082;13.744;2023-01-10T09:01:33;4.40;;;2.60;;
74401;SDS011;62837;51.082;13.744;2023-01-10T09:04:04;4.90;;;1.90;;
74401;SDS011;62837;51.082;13.744;2023-01-10T09:06:35;4.00;;;2.00;;
74401;SDS011;62837;51.082;13.744;2023-01-10T09:09:06;6.10;;;1.70;;
74401;SDS011;62837;51.082;13.744;2023-01-10T09:11:37;4.00;;;1.70;;
74401;SDS011;62837;51.082;13.744;2023-01-10T09:14:08;3.20;;;1.30;;
74401;SDS011;62837;51.082;13.744;2023-01-10T09:16:39;4.80;;;1.60;;
74401;SDS011;62837;51.082;13.744;2023-01-10T09:19:10;4.60;;;1.70;;
74401;SDS011;62837;51.082;13.744;2023-01-10T09:21:41;3.00;;;1.20;;
74401;SDS011;62837;51.082;13.744;2023-01-10T09:24:11;4.00;;;1.20;;
74401;SDS011;62837;51.082;13.744;2023-01-10T09:26:42;3.10;;;1.70;;
74401;SDS011;62837;51.082;13.744;2023-01-10T09:29:13;5.20;;;2.00;;
74401;SDS011;62837;51.082;13.744;2023-01-10T09:31:44;1.60;;;0.90;;
74401;SDS011;62837;51.082;13.744;2023-01-10T09:34:15;3.10;;;1.10;;
74401;SDS011;62837;51.082;13.744;2023-01-10T09:36:45;1.90;;;1.10;;
74401;SDS011;62837;51.082;13.744;2023-01-10T09:39:16;2.50;;;1.00;;
74401;SDS011;62837;51.082;13.744;2023-01-10T09:41:53;1.40;;;0.50;;
74401;SDS011;62837;51.082;13.744;2023-01-10T09:44:38;3.10;;;0.80;;
74401;SDS011;62837;51.082;13.744;2023-01-10T09:47:20;3.60;;;0.60;;
74401;SDS011;62837;51.082;13.744;2023-01-10T09:50:03;2.00;;;0.90;;
74401;SDS011;62837;51.082;13.744;2023-01-10T09:52:43;1.60;;;0.90;;
74401;SDS011;62837;51.082;13.744;2023-01-10T09:55:20;3.30;;;0.80;;
74401;SDS011;62837;51.082;13.744;2023-01-10T09:57:55;2.00;;;0.80;;
74401;SDS011;62837;51.082;13.744;2023-01-10T10:00:33;2.60;;;0.90;;
74401;SDS011;62837;51.082;13.744;2023-01-10T10:03:11;3.90;;;1.20;;
74401;SDS011;62837;51.082;13.744;2023-01-10T10:05:50;2.20;;;1.10;;
74401;SDS011;62837;51.082;13.744;2023-01-10T10:08:37;2.80;;;0.80;;
74401;SDS011;62837;51.082;13.744;2023-01-10T10:11:14;3.80;;;1.30;;
74401;SDS011;62837;51.082;13.744;2023-01-10T10:14:01;2.40;;;1.20;;
74401;SDS011;62837;51.082;13.744;2023-01-10T10:16:49;5.70;;;1.80;;
74401;SDS011;62837;51.082;13.744;2023-01-10T10:19:31;4.60;;;1.10;;
74401;SDS011;62837;51.082;13.744;2023-01-10T10:22:18;3.60;;;1.30;;
74401;SDS011;62837;51.082;13.744;2023-01-10T10:24:56;3.70;;;1.40;;
74401;SDS011;62837;51.082;13.744;2023-01-10T10:27:35;3.60;;;1.60;;
74401;SDS011;62837;51.082;13.744;2023-01-10T10:30:26;4.40;;;2.00;;
74401;SDS011;62837;51.082;13.744;2023-01-10T10:33:15;3.40;;;1.60;;
74401;SDS011;62837;51.082;13.744;2023-01-10T10:35:54;4.90;;;1.70;;
74401;SDS011;62837;51.082;13.744;2023-01-10T10:38:31;3.60;;;1.40;;
74401;SDS011;62837;51.082;13.744;2023-01-10T10:41:07;4.70;;;1.10;;
74401;SDS011;62837;51.082;13.744;2023-01-10T10:43:45;3.60;;;1.20;;
74401;SDS011;62837;51.082;13.744;2023-01-10T10:46:17;3.60;;;1.40;;
74401;SDS011;62837;51.082;13.744;2023-01-10T10:48:49;3.30;;;0.80;;
74401;SDS011;62837;51.082;13.744;2023-01-10T10:51:26;3.40;;;1.10;;
74401;SDS011;62837;51.082;13.744;2023-01-10T10:54:06;3.60;;;1.00;;
74401;SDS011;62837;51.082;13.744;2023-01-10T10:56:41;2.90;;;1.00;;
74401;SDS011;62837;51.082;13.744;2023-01-10T10:59:14;4.30;;;0.90;;
74401;SDS011;62837;51.082;13.744;2023-01-10T11:01:47;4.10;;;0.80;;
74401;SDS011;62837;51.082;13.744;2023-01-10T11:06:51;3.30;;;1.10;;
74401;SDS011;62837;51.082;13.744;2023-01-10T11:09:23;5.20;;;1.10;;
74401;SDS011;62837;51.082;13.744;2023-01-10T11:11:58;4.80;;;0.80;;
74401;SDS011;62837;51.082;13.744;2023-01-10T11:14:40;2.30;;;0.50;;
74401;SDS011;62837;51.082;13.744;2023-01-10T11:17:20;3.70;;;1.00;;
74401;SDS011;62837;51.082;13.744;2023-01-10T11:19:55;3.70;;;1.10;;
74401;SDS011;62837;51.082;13.744;2023-01-10T11:22:27;6.10;;;1.70;;
74401;SDS011;62837;51.082;13.744;2023-01-10T11:25:13;4.20;;;1.30;;
74401;SDS011;62837;51.082;13.744;2023-01-10T11:27:46;2.80;;;1.10;;
74401;SDS011;62837;51.082;13.744;2023-01-10T11:30:21;3.70;;;1.00;;
74401;SDS011;62837;51.082;13.744;2023-01-10T11:32:54;4.20;;;1.00;;
74401;SDS011;62837;51.082;13.744;2023-01-10T11:35:29;2.90;;;0.60;;
74401;SDS011;62837;51.082;13.744;2023-01-10T11:38:04;1.90;;;0.90;;
74401;SDS011;62837;51.082;13.744;2023-01-10T11:40:51;4.40;;;1.10;;
74401;SDS011;62837;51.082;13.744;2023-01-10T11:43:25;6.10;;;1.30;;
74401;SDS011;62837;51.082;13.744;2023-01-10T11:45:59;5.50;;;1.50;;
74401;SDS011;62837;51.082;13.744;2023-01-10T11:48:40;4.70;;;1.20;;
74401;SDS011;62837;51.082;13.744;2023-01-10T11:51:33;6.40;;;1.40;;
74401;SDS011;62837;51.082;13.744;2023-01-10T11:54:10;7.50;;;1.80;;
74401;SDS011;62837;51.082;13.744;2023-01-10T11:56:46;4.00;;;1.20;;
74401;SDS011;62837;51.082;13.744;2023-01-10T11:59:24;4.60;;;1.10;;
74401;SDS011;62837;51.082;13.744;2023-01-10T12:01:57;7.50;;;1.90;;
74401;SDS011;62837;51.082;13.744;2023-01-10T12:04:32;10.30;;;2.10;;
74401;SDS011;62837;51.082;13.744;2023-01-10T12:07:11;6.30;;;1.50;;
74401;SDS011;62837;51.082;13.744;2023-01-10T12:09:42;12.00;;;1.50;;
74401;SDS011;62837;51.082;13.744;2023-01-10T12:12:22;4.00;;;1.10;;
74401;SDS011;62837;51.082;13.744;2023-01-10T12:14:54;7.40;;;1.30;;
74401;SDS011;62837;51.082;13.744;2023-01-10T12:17:27;4.00;;;1.60;;
74401;SDS011;62837;51.082;13.744;2023-01-10T12:20:00;3.50;;;1.20;;
74401;SDS011;62837;51.082;13.744;2023-01-10T12:22:35;7.00;;;1.20;;
74401;SDS011;62837;51.082;13.744;2023-01-10T12:25:21;5.40;;;2.10;;
74401;SDS011;62837;51.082;13.744;2023-01-10T12:27:56;5.70;;;1.40;;
74401;SDS011;62837;51.082;13.744;2023-01-10T12:30:30;5.40;;;1.50;;
74401;SDS011;62837;51.082;13.744;2023-01-10T12:33:05;5.40;;;1.20;;
74401;SDS011;62837;51.082;13.744;2023-01-10T12:35:41;7.00;;;1.20;;
74401;SDS011;62837;51.082;13.744;2023-01-10T12:38:19;3.30;;;1.00;;
74401;SDS011;62837;51.082;13.744;2023-01-10T12:41:09;3.90;;;0.80;;
74401;SDS011;62837;51.082;13.744;2023-01-10T12:44:04;8.30;;;1.30;;
74401;SDS011;62837;51.082;13.744;2023-01-10T12:46:44;3.90;;;0.90;;
74401;SDS011;62837;51.082;13.744;2023-01-10T12:49:35;4.50;;;1.20;;
74401;SDS011;62837;51.082;13.744;2023-01-10T12:52:17;7.70;;;1.20;;
74401;SDS011;62837;51.082;13.744;2023-01-10T12:54:55;8.30;;;1.60;;
74401;SDS011;62837;51.082;13.744;2023-01-10T12:57:27;5.70;;;1.10;;
74401;SDS011;62837;51.082;13.744;2023-01-10T13:00:04;4.20;;;1.50;;
74401;SDS011;62837;51.082;13.744;2023-01-10T13:02:45;7.20;;;1.30;;
74401;SDS011;62837;51.082;13.744;2023-01-10T13:05:20;4.00;;;1.10;;
74401;SDS011;62837;51.082;13.744;2023-01-10T13:07:53;4.60;;;1.20;;
74401;SDS011;62837;51.082;13.744;2023-01-10T13:10:28;6.00;;;1.20;;
74401;SDS011;62837;51.082;13.744;2023-01-10T13:13:11;4.20;;;0.90;;
74401;SDS011;62837;51.082;13.744;2023-01-10T13:15:50;7.90;;;1.30;;
74401;SDS011;62837;51.082;13.744;2023-01-10T13:18:25;4.70;;;1.10;;
74401;SDS011;62837;51.082;13.744;2023-01-10T13:21:04;7.50;;;1.00;;
74401;SDS011;62837;51.082;13.744;2023-01-10T13:23:44;7.30;;;1.60;;
74401;SDS011;62837;51.082;13.744;2023-01-10T13:26:18;4.80;;;1.00;;
74401;SDS011;62837;51.082;13.744;2023-01-10T13:28:53;5.30;;;1.30;;
74401;SDS011;62837;51.082;13.744;2023-01-10T13:31:26;8.40;;;1.10;;
74401;SDS011;62837;51.082;13.744;2023-01-10T13:34:00;6.10;;;1.00;;
74401;SDS011;62837;51.082;13.744;2023-01-10T13:36:35;2.50;;;0.50;;
74401;SDS011;62837;51.082;13.744;2023-01-10T13:39:17;5.90;;;1.30;;
74401;SDS011;62837;51.082;13.744;2023-01-10T13:42:11;5.00;;;1.80;;
74401;SDS011;62837;51.082;13.744;2023-01-10T13:45:23;5.90;;;1.10;;
74401;SDS011;62837;51.082;13.744;2023-01-10T13:47:59;5.50;;;1.40;;
74401;SDS011;62837;51.082;13.744;2023-01-10T13:50:53;5.80;;;1.50;;
74401;SDS011;62837;51.082;13.744;2023-01-10T13:56:35;5.80;;;1.30;;
74401;SDS011;62837;51.082;13.744;2023-01-10T13:59:12;2.70;;;1.00;;
74401;SDS011;62837;51.082;13.744;2023-01-10T14:02:22;5.10;;;1.10;;
74401;SDS011;62837;51.082;13.744;2023-01-10T14:04:59;4.00;;;1.00;;
74401;SDS011;62837;51.082;13.744;2023-01-10T14:07:33;7.10;;;1.50;;
74401;SDS011;62837;51.082;13.744;2023-01-10T14:10:18;6.60;;;1.00;;
74401;SDS011;62837;51.082;13.744;2023-01-10T14:12:52;4.20;;;0.80;;
74401;SDS011;62837;51.082;13.744;2023-01-10T14:15:26;4.20;;;1.20;;
74401;SDS011;62837;51.082;13.744;2023-01-10T14:18:01;6.70;;;1.60;;
74401;SDS011;62837;51.082;13.744;2023-01-10T14:20:34;4.50;;;1.40;;
74401;SDS011;62837;51.082;13.744;2023-01-10T14:23:07;7.70;;;1.50;;
74401;SDS011;62837;51.082;13.744;2023-01-10T14:25:52;4.60;;;1.20;;
74401;SDS011;62837;51.082;13.744;2023-01-10T14:28:26;5.40;;;1.50;;
74401;SDS011;62837;51.082;13.744;2023-01-10T14:31:01;4.80;;;1.50;;
74401;SDS011;62837;51.082;13.744;2023-01-10T14:33:35;7.80;;;2.30;;
74401;SDS011;62837;51.082;13.744;2023-01-10T14:36:13;6.60;;;1.50;;
74401;SDS011;62837;51.082;13.744;2023-01-10T14:38:46;6.50;;;1.40;;
74401;SDS011;62837;51.082;13.744;2023-01-10T14:41:27;4.80;;;1.10;;
74401;SDS011;62837;51.082;13.744;2023-01-10T14:44:05;6.70;;;1.10;;
74401;SDS011;62837;51.082;13.744;2023-01-10T14:46:46;1.90;;;0.70;;
74401;SDS011;62837;51.082;13.744;2023-01-10T14:49:20;5.70;;;0.90;;
74401;SDS011;62837;51.082;13.744;2023-01-10T14:51:52;1.80;;;0.90;;
74401;SDS011;62837;51.082;13.744;2023-01-10T14:54:27;3.90;;;0.60;;
74401;SDS011;62837;51.082;13.744;2023-01-10T14:56:58;3.10;;;0.70;;
74401;SDS011;62837;51.082;13.744;2023-01-10T14:59:30;8.80;;;1.90;;
74401;SDS011;62837;51.082;13.744;2023-01-10T15:02:08;5.80;;;1.30;;
74401;SDS011;62837;51.082;13.744;2023-01-10T15:04:49;7.10;;;1.30;;
74401;SDS011;62837;51.082;13.744;2023-01-10T15:07:23;3.40;;;0.70;;
74401;SDS011;62837;51.082;13.744;2023-01-10T15:09:55;3.40;;;1.20;;
74401;SDS011;62837;51.082;13.744;2023-01-10T15:12:31;2.60;;;1.20;;
74401;SDS011;62837;51.082;13.744;2023-01-10T15:15:04;5.90;;;1.20;;
74401;SDS011;62837;51.082;13.744;2023-01-10T15:17:41;3.50;;;1.20;;
74401;SDS011;62837;51.082;13.744;2023-01-10T15:20:14;3.50;;;1.00;;
74401;SDS011;62837;51.082;13.744;2023-01-10T15:22:48;3.30;;;0.80;;
74401;SDS011;62837;51.082;13.744;2023-01-10T15:25:26;3.30;;;0.90;;
74401;SDS011;62837;51.082;13.744;2023-01-10T15:27:58;4.80;;;1.20;;
74401;SDS011;62837;51.082;13.744;2023-01-10T15:30:30;3.40;;;0.80;;
74401;SDS011;62837;51.082;13.744;2023-01-10T15:33:06;4.00;;;1.40;;
74401;SDS011;62837;51.082;13.744;2023-01-10T15:35:41;2.30;;;0.70;;